Terminal Aerodrome Forecast
Issued by NWS Cleveland, OH

Home | Current Version | Previous Version | Graphics & Text | Print | Product List | Glossary On
Versions: 1 2 3 4 5 6 7 8 9 10 11 12 13 14
164
FTUS41 KCLE 192335
TAFMFD
TAF
KMFD 192335Z 2000/2024 22007KT P6SM VCSH BKN050 OVC100
     FM200300 24008KT P6SM SCT050 BKN120
     FM201600 26012G18KT P6SM BKN045=

USA.gov is the U.S. government's official web portal to all federal, state and local government web resources and services.